Time;durP1;ratioP1;P1;durP2;ratioP2;P2;SDS_P1;SDS_P2;PMS_P1;PMS_P2;Temp;Humidity;BMP_temperature;BMP_pressure;BME280_temperature;BME280_humidity;BME280_pressure;Samples;Min_cycle;Max_cycle;Signal;HPM_P1;HPM_P2
2024/02/18 00:02:01;;;;;;;19.17;9.68;;;5.40;99.90;;;8.77;100.00;102479.69;5030355;28;20180;-77
2024/02/18 00:04:28;;;;;;;20.15;9.40;;;5.40;99.90;;;8.78;100.00;102475.94;5030712;28;20132;-76
2024/02/18 00:06:54;;;;;;;15.52;8.27;;;5.40;99.90;;;8.86;100.00;102477.00;5023698;28;20071;-77
2024/02/18 00:09:20;;;;;;;18.05;8.35;;;5.30;99.90;;;9.07;100.00;102472.03;5031996;28;20056;-77
2024/02/18 00:11:46;;;;;;;16.52;8.90;;;5.30;99.90;;;9.14;100.00;102457.75;5030933;28;20110;-76
2024/02/18 00:14:11;;;;;;;17.38;8.50;;;5.30;99.90;;;9.06;100.00;102462.16;5031537;28;20029;-76
2024/02/18 00:16:37;;;;;;;17.02;8.20;;;5.30;99.90;;;9.01;100.00;102450.88;5031500;28;20041;-76
2024/02/18 00:19:03;;;;;;;16.52;8.90;;;5.30;99.90;;;8.98;100.00;102445.75;5030786;28;20037;-76
2024/02/18 00:21:29;;;;;;;18.45;8.15;;;5.30;99.90;;;9.02;100.00;102444.44;5031816;28;20042;-76
2024/02/18 00:23:58;;;;;;;14.65;7.93;;;5.20;99.90;;;9.53;100.00;102451.75;5031674;28;20055;-76
2024/02/18 00:26:25;;;;;;;15.73;8.13;;;5.20;99.90;;;9.44;100.00;102458.22;5026643;28;20038;-77
2024/02/18 00:28:54;;;;;;;16.65;8.95;;;5.20;99.90;;;9.41;100.00;102448.47;5009712;28;20114;-77
2024/02/18 00:31:20;;;;;;;16.33;8.32;;;5.30;99.90;;;9.17;100.00;102458.28;5038578;28;20457;-76
2024/02/18 00:33:46;;;;;;;17.00;9.35;;;5.30;99.90;;;8.96;100.00;102438.78;5010220;28;20056;-76
2024/02/18 00:36:12;;;;;;;16.17;8.57;;;5.30;99.90;;;8.95;100.00;102435.19;5030199;28;20060;-76
2024/02/18 00:38:38;;;;;;;15.80;8.88;;;5.20;99.90;;;8.85;100.00;102435.31;5046383;28;20037;-76
2024/02/18 00:41:06;;;;;;;18.50;8.90;;;5.10;99.90;;;8.72;100.00;102427.56;5013230;28;20041;-77
2024/02/18 00:43:32;;;;;;;;;;;5.00;99.90;;;9.05;100.00;102425.06;5031717;28;20045;-76
2024/02/18 00:45:58;;;;;;;13.88;8.25;;;5.00;99.90;;;8.83;100.00;102414.72;5030065;28;19981;-77
2024/02/18 00:48:24;;;;;;;18.40;9.48;;;5.00;99.90;;;8.93;100.00;102418.16;5030658;28;20064;-76
2024/02/18 00:50:50;;;;;;;16.23;9.68;;;5.10;99.90;;;9.05;100.00;102429.63;5030586;28;20041;-76
2024/02/18 00:53:15;;;;;;;17.10;10.07;;;5.00;99.90;;;9.25;100.00;102419.31;5029930;28;20091;-76
2024/02/18 00:55:44;;;;;;;18.90;10.77;;;5.00;99.90;;;9.25;100.00;102413.03;5030513;28;20033;-77
2024/02/18 00:58:13;;;;;;;19.67;10.45;;;5.00;99.90;;;9.28;100.00;102418.16;5045293;28;20396;-76
2024/02/18 01:00:39;;;;;;;19.50;11.27;;;5.00;99.90;;;9.37;100.00;102406.25;5024456;28;20072;-77
2024/02/18 01:03:06;;;;;;;19.95;11.30;;;5.00;99.90;;;9.28;100.00;102416.28;5030085;28;20053;-76
2024/02/18 01:05:32;;;;;;;18.73;11.07;;;5.00;99.90;;;8.97;100.00;102405.94;5045281;28;20105;-76
2024/02/18 01:07:58;;;;;;;20.35;11.85;;;5.00;99.90;;;9.07;100.00;102403.97;5012079;28;20426;-76
2024/02/18 01:10:24;;;;;;;18.10;11.45;;;5.00;99.90;;;9.33;100.00;102408.47;5029757;28;20065;-76
2024/02/18 01:12:50;;;;;;;19.20;11.48;;;5.10;99.90;;;9.54;100.00;102398.97;5030139;28;20041;-76
2024/02/18 01:15:16;;;;;;;18.17;11.57;;;5.10;99.90;;;9.63;100.00;102408.03;5030564;28;20121;-76
2024/02/18 01:17:42;;;;;;;21.48;11.85;;;5.10;99.90;;;9.74;100.00;102406.84;5032280;28;20038;-76
2024/02/18 01:20:08;;;;;;;18.23;11.35;;;5.10;99.90;;;9.87;100.00;102411.81;5030170;28;20095;-76
2024/02/18 01:22:34;;;;;;;18.85;10.60;;;5.00;99.90;;;9.96;100.00;102412.66;5008575;28;20034;-76
2024/02/18 01:25:01;;;;;;;17.70;10.52;;;4.90;99.90;;;9.75;100.00;102401.25;5029432;28;20041;-76
2024/02/18 01:27:27;;;;;;;17.90;11.25;;;4.80;99.90;;;9.82;100.00;102401.44;5029561;28;20386;-76
2024/02/18 01:29:52;;;;;;;17.40;10.52;;;4.80;99.90;;;9.14;100.00;102392.41;4991752;28;20041;-76
2024/02/18 01:32:18;;;;;;;20.15;11.90;;;4.70;99.90;;;9.05;100.00;102380.63;5030099;28;20037;-75
2024/02/18 01:34:44;;;;;;;19.08;11.63;;;4.60;99.90;;;9.07;100.00;102386.75;5026078;28;20092;-76
2024/02/18 01:37:10;;;;;;;20.48;11.75;;;4.40;99.90;;;9.00;100.00;102385.72;5030024;28;20385;-76
2024/02/18 01:39:36;;;;;;;20.42;12.65;;;4.40;99.90;;;9.02;100.00;102384.53;5030064;28;20481;-76
2024/02/18 01:42:02;;;;;;;21.38;12.80;;;4.40;99.90;;;8.37;100.00;102377.69;5029618;28;20048;-76
2024/02/18 01:44:28;;;;;;;23.58;12.98;;;4.30;99.90;;;8.32;100.00;102382.75;5029186;28;20029;-76
2024/02/18 01:46:54;;;;;;;21.20;12.40;;;4.30;99.90;;;8.70;100.00;102383.34;5044050;28;20044;-77
2024/02/18 01:49:20;;;;;;;19.90;11.98;;;4.20;99.90;;;8.90;100.00;102374.94;5026714;28;20029;-77
2024/02/18 01:51:48;;;;;;;22.65;13.18;;;4.30;99.90;;;8.59;100.00;102378.19;5029535;28;20033;-77
2024/02/18 01:54:14;;;;;;;25.27;14.57;;;4.30;99.90;;;8.46;100.00;102384.88;5029309;28;20037;-77
2024/02/18 01:56:42;;;;;;;23.02;14.25;;;4.20;99.90;;;8.52;100.00;102377.16;5020647;28;20037;-77
2024/02/18 01:59:09;;;;;;;25.98;14.73;;;4.20;99.90;;;8.56;100.00;102360.31;4996480;28;20136;-77
2024/02/18 02:01:34;;;;;;;26.42;15.32;;;4.20;99.90;;;8.88;100.00;102371.53;5012362;28;20033;-77
2024/02/18 02:04:02;;;;;;;28.52;14.38;;;4.10;99.90;;;8.57;100.00;102375.63;5029272;28;20042;-76
2024/02/18 02:06:31;;;;;;;26.65;15.35;;;4.20;99.90;;;8.94;100.00;102370.88;5025408;28;20445;-76
2024/02/18 02:08:57;;;;;;;27.38;14.90;;;4.30;99.90;;;9.04;100.00;102370.75;5025224;28;20401;-76
2024/02/18 02:11:23;;;;;;;25.77;14.88;;;4.30;99.90;;;9.18;100.00;102369.25;5029615;28;20045;-76
2024/02/18 02:13:49;;;;;;;27.42;15.50;;;4.30;99.90;;;9.13;100.00;102363.47;5029972;28;20493;-76
2024/02/18 02:16:15;;;;;;;25.00;15.07;;;4.20;99.90;;;8.66;100.00;102364.81;5012190;28;20042;-76
2024/02/18 02:18:41;;;;;;;28.35;15.25;;;4.30;99.90;;;8.72;100.00;102362.28;5029589;28;20035;-76
2024/02/18 02:21:08;;;;;;;29.10;16.25;;;4.20;99.90;;;8.83;100.00;102365.75;5032720;28;20042;-76
2024/02/18 02:23:34;;;;;;;28.00;15.60;;;4.10;99.90;;;8.92;100.00;102362.03;5033563;28;20119;-76
2024/02/18 02:26:01;;;;;;;26.83;15.45;;;4.00;99.90;;;8.52;100.00;102361.66;5033372;28;20176;-76
2024/02/18 02:28:32;;;;;;;31.73;16.42;;;3.90;99.90;;;8.64;100.00;102364.97;5015572;28;20026;-76
2024/02/18 02:30:59;;;;;;;23.70;14.70;;;3.90;99.90;;;8.70;100.00;102369.75;5033416;28;20085;-76
2024/02/18 02:33:25;;;;;;;26.75;16.13;;;3.70;99.90;;;8.47;100.00;102362.09;5033580;28;20029;-77
2024/02/18 02:35:51;;;;;;;27.35;14.45;;;3.60;99.90;;;8.43;100.00;102370.75;5012364;28;20386;-76
2024/02/18 02:38:17;;;;;;;24.92;14.20;;;3.60;99.90;;;8.23;100.00;102362.81;5047390;28;20049;-76
2024/02/18 02:40:43;;;;;;;26.48;15.40;;;3.50;99.90;;;7.47;100.00;102355.03;5033377;28;20059;-76
2024/02/18 02:43:10;;;;;;;33.58;15.77;;;3.50;99.90;;;7.51;100.00;102355.59;5014812;28;20049;-79
2024/02/18 02:45:36;;;;;;;31.20;16.60;;;3.60;99.90;;;7.84;100.00;102358.59;5047809;28;20489;-78
2024/02/18 02:48:02;;;;;;;34.88;17.13;;;3.70;99.90;;;7.99;100.00;102355.34;5033203;28;20038;-76
2024/02/18 02:50:28;;;;;;;28.45;16.30;;;3.80;99.90;;;8.32;100.00;102350.97;5031720;28;20030;-78
2024/02/18 02:52:54;;;;;;;31.02;16.75;;;3.90;99.90;;;8.48;100.00;102344.75;5032073;28;20041;-76
2024/02/18 02:55:19;;;;;;;29.52;16.63;;;3.90;99.90;;;8.66;100.00;102343.03;5033041;28;20048;-76
2024/02/18 02:57:48;;;;;;;33.38;16.95;;;3.90;99.90;;;8.44;100.00;102340.66;5047863;28;20038;-76
2024/02/18 03:00:14;;;;;;;33.30;17.80;;;3.90;99.90;;;8.07;100.00;102330.94;5033498;28;20082;-77
2024/02/18 03:02:41;;;;;;;35.08;17.30;;;3.90;99.90;;;7.93;100.00;102324.19;5032911;28;20037;-76
2024/02/18 03:05:11;;;;;;;35.33;17.48;;;3.90;99.90;;;8.30;100.00;102320.34;5014028;28;20041;-76
2024/02/18 03:07:37;;;;;;;32.58;17.60;;;3.90;99.90;;;8.35;100.00;102312.59;5015103;28;20525;-77
2024/02/18 03:10:04;;;;;;;35.45;18.23;;;3.80;99.90;;;8.27;100.00;102317.97;5032734;28;20040;-77
2024/02/18 03:12:30;;;;;;;38.88;18.23;;;3.70;99.90;;;8.07;100.00;102320.88;5032088;28;20431;-77
2024/02/18 03:14:56;;;;;;;39.92;19.17;;;3.70;99.90;;;7.51;100.00;102303.13;5032108;28;20041;-77
2024/02/18 03:17:22;;;;;;;48.70;19.60;;;3.70;99.90;;;7.67;100.00;102321.41;5032425;28;20445;-77
2024/02/18 03:19:48;;;;;;;46.13;19.55;;;3.80;99.90;;;7.88;100.00;102316.50;5022979;28;20389;-77
2024/02/18 03:22:21;;;;;;;45.58;19.23;;;3.80;99.90;;;8.14;100.00;102323.81;5031785;28;20427;-77
2024/02/18 03:24:48;;;;;;;46.22;19.88;;;3.80;99.90;;;8.28;100.00;102294.34;5032368;28;20492;-77
2024/02/18 03:27:14;;;;;;;48.92;19.80;;;3.80;99.90;;;8.57;100.00;102309.50;5032134;28;20042;-77
2024/02/18 03:29:40;;;;;;;48.35;21.40;;;3.80;99.90;;;7.72;100.00;102321.84;5032250;28;20040;-77
2024/02/18 03:32:06;;;;;;;49.25;20.58;;;3.90;99.90;;;8.49;100.00;102310.28;5013187;28;20484;-77
2024/02/18 03:34:31;;;;;;;42.13;19.05;;;3.90;99.90;;;8.33;100.00;102313.75;5018089;28;20033;-77
2024/02/18 03:36:57;;;;;;;36.60;19.20;;;3.80;99.90;;;8.28;100.00;102305.25;5030932;28;20033;-77
2024/02/18 03:39:23;;;;;;;32.80;16.52;;;3.60;99.90;;;8.28;100.00;102311.50;5031504;28;20393;-77
2024/02/18 03:41:49;;;;;;;33.45;17.15;;;3.40;99.90;;;8.11;100.00;102294.25;5031936;28;20179;-77
2024/02/18 03:44:15;;;;;;;42.08;18.13;;;3.30;99.90;;;7.86;100.00;102309.53;5014357;28;20038;-77
2024/02/18 03:46:40;;;;;;;37.33;16.58;;;3.20;99.90;;;8.00;100.00;102297.25;5031947;28;20033;-77
2024/02/18 03:49:06;;;;;;;37.53;17.38;;;3.20;99.90;;;8.16;100.00;102291.06;5031879;28;20365;-77
2024/02/18 03:51:32;;;;;;;39.92;17.92;;;3.20;99.90;;;8.21;100.00;102294.13;5026972;28;20045;-77
2024/02/18 03:53:58;;;;;;;37.78;17.17;;;3.20;99.90;;;8.17;100.00;102277.28;5028729;28;20041;-77
2024/02/18 03:56:23;;;;;;;37.78;17.35;;;3.20;99.90;;;7.96;100.00;102280.38;5031108;28;20049;-77
2024/02/18 03:58:49;;;;;;;40.35;17.52;;;3.20;99.90;;;8.07;100.00;102265.69;5031177;28;20037;-77
2024/02/18 04:01:15;;;;;;;39.30;17.30;;;3.10;99.90;;;7.96;100.00;102280.38;5031993;28;20025;-77
2024/02/18 04:03:40;;;;;;;44.63;18.15;;;3.10;99.90;;;7.92;100.00;102279.84;5031346;28;20413;-77
2024/02/18 04:06:06;;;;;;;44.53;19.10;;;3.10;99.90;;;7.96;100.00;102276.84;5010583;28;20046;-77
2024/02/18 04:08:32;;;;;;;41.22;18.48;;;3.20;99.90;;;8.03;100.00;102270.56;5028792;28;20029;-77
2024/02/18 04:10:57;;;;;;;53.17;20.55;;;3.20;99.90;;;8.21;100.00;102278.66;5010512;28;20065;-77
2024/02/18 04:13:23;;;;;;;55.05;20.83;;;3.30;99.90;;;7.85;100.00;102267.91;5030082;28;20547;-76
2024/02/18 04:15:49;;;;;;;56.63;23.50;;;3.60;99.90;;;8.17;100.00;102269.13;5031547;28;20034;-76
2024/02/18 04:18:16;;;;;;;59.83;23.85;;;3.90;99.90;;;8.18;100.00;102265.41;4997888;28;20044;-77
2024/02/18 04:20:41;;;;;;;66.00;23.63;;;4.20;99.90;;;8.20;100.00;102259.81;5031254;28;20512;-76
2024/02/18 04:23:07;;;;;;;63.70;24.73;;;4.20;99.90;;;8.48;100.00;102260.44;5031426;28;20061;-77
2024/02/18 04:25:33;;;;;;;60.67;23.17;;;4.10;99.90;;;8.46;100.00;102250.75;5023515;28;20485;-77
2024/02/18 04:28:00;;;;;;;58.10;22.88;;;4.00;99.90;;;8.61;100.00;102253.75;5030709;28;20092;-77
2024/02/18 04:30:26;;;;;;;55.30;21.92;;;3.90;99.90;;;8.73;100.00;102255.13;5031292;28;20454;-77
2024/02/18 04:32:51;;;;;;;51.13;21.58;;;3.80;99.90;;;8.60;100.00;102250.16;5031277;28;20124;-77
2024/02/18 04:35:17;;;;;;;68.65;23.80;;;3.80;99.90;;;8.61;100.00;102249.13;5030723;28;20029;-77
2024/02/18 04:37:43;;;;;;;71.30;23.98;;;3.90;99.90;;;8.63;100.00;102259.88;5010422;28;20050;-77
2024/02/18 04:40:10;;;;;;;68.07;23.05;;;4.00;99.90;;;9.01;100.00;102248.56;5019272;28;20038;-77
2024/02/18 04:42:35;;;;;;;71.07;25.35;;;4.00;99.90;;;8.48;100.00;102240.56;5030050;28;20381;-77
2024/02/18 04:45:01;;;;;;;58.05;22.73;;;4.10;99.90;;;8.30;100.00;102233.34;5045998;28;20038;-77
2024/02/18 04:47:27;;;;;;;62.08;23.27;;;4.10;99.90;;;8.72;100.00;102238.97;5030103;28;20139;-77
2024/02/18 04:49:53;;;;;;;47.58;20.27;;;4.10;99.90;;;8.68;100.00;102224.84;5030661;28;20037;-77
2024/02/18 04:52:18;;;;;;;61.58;21.98;;;4.00;99.90;;;8.73;100.00;102232.53;5010789;28;20041;-77
2024/02/18 04:54:44;;;;;;;62.45;21.45;;;3.90;99.90;;;8.40;100.00;102227.78;5031764;28;20087;-77
2024/02/18 04:57:10;;;;;;;62.45;22.98;;;3.80;99.90;;;7.86;100.00;102230.75;5030658;28;20040;-77
2024/02/18 04:59:35;;;;;;;62.33;22.70;;;3.80;99.90;;;7.88;100.00;102218.69;5030762;28;20108;-77
2024/02/18 05:02:02;;;;;;;76.10;25.20;;;3.90;99.90;;;8.24;100.00;102217.69;5045790;28;20392;-77
2024/02/18 05:04:35;;;;;;;73.72;26.25;;;4.00;99.90;;;8.59;100.00;102221.25;5050276;28;20424;-76
2024/02/18 05:07:01;;;;;;;83.25;26.98;;;4.00;99.90;;;8.54;100.00;102218.16;5037334;28;20032;-76
2024/02/18 05:09:27;;;;;;;74.78;28.02;;;4.10;99.90;;;8.75;100.00;102215.03;5044901;28;20578;-77
2024/02/18 05:11:52;;;;;;;88.75;27.85;;;4.30;99.90;;;8.47;100.00;102209.78;5035036;28;20041;-77
2024/02/18 05:14:18;;;;;;;79.45;27.48;;;4.40;99.90;;;8.48;100.00;102211.47;5044926;28;20042;-76
2024/02/18 05:16:44;;;;;;;81.13;27.50;;;4.50;99.90;;;8.97;100.00;102215.38;5028690;28;20034;-76
2024/02/18 05:19:10;;;;;;;86.07;27.17;;;4.40;99.90;;;8.75;100.00;102208.72;5029462;28;20038;-76
2024/02/18 05:21:40;;;;;;;82.10;26.58;;;4.40;99.90;;;9.00;100.00;102212.31;5029322;28;20442;-76
2024/02/18 05:24:06;;;;;;;88.28;27.98;;;4.40;99.90;;;9.13;100.00;102216.44;5043667;28;20041;-76
2024/02/18 05:26:31;;;;;;;89.78;28.27;;;4.50;99.90;;;9.28;100.00;102214.75;5029299;28;20396;-76
2024/02/18 05:28:57;;;;;;;93.30;29.40;;;4.60;99.90;;;9.49;100.00;102207.91;5032075;28;20116;-76
2024/02/18 05:31:25;;;;;;;99.95;29.45;;;4.70;99.90;;;9.72;100.00;102204.47;5038752;28;20033;-77
2024/02/18 05:33:52;;;;;;;93.03;28.27;;;4.80;99.90;;;9.90;100.00;102207.88;5032559;28;20102;-76
2024/02/18 05:36:20;;;;;;;90.50;29.42;;;4.90;99.90;;;10.03;100.00;102195.53;5035619;28;20037;-77
2024/02/18 05:38:46;;;;;;;97.70;28.98;;;5.00;99.90;;;9.97;100.00;102197.13;5042561;28;20517;-76
2024/02/18 05:41:12;;;;;;;98.78;29.13;;;5.10;99.90;;;10.00;100.00;102202.22;5041428;28;20096;-76
2024/02/18 05:43:38;;;;;;;89.38;29.67;;;5.10;99.90;;;9.83;100.00;102195.97;5031771;28;20044;-76
2024/02/18 05:46:07;;;;;;;90.13;28.20;;;5.10;99.90;;;10.08;100.00;102201.34;5053127;28;20026;-77
2024/02/18 05:48:33;;;;;;;93.88;29.67;;;5.10;99.90;;;10.06;100.00;102193.34;5035000;28;20044;-77
2024/02/18 05:50:59;;;;;;;101.82;31.30;;;5.30;99.90;;;9.74;100.00;102188.81;5055529;28;20033;-77
2024/02/18 05:53:24;;;;;;;99.85;31.73;;;5.40;99.90;;;9.86;100.00;102190.16;5037128;28;20358;-77
2024/02/18 05:55:50;;;;;;;99.28;30.10;;;5.50;99.90;;;10.17;100.00;102188.50;5028695;28;20052;-77
2024/02/18 05:58:16;;;;;;;77.55;26.05;;;5.50;99.90;;;10.18;100.00;102177.44;5027812;28;20040;-77
2024/02/18 06:00:42;;;;;;;87.75;27.98;;;5.40;99.90;;;9.76;100.00;102178.59;5039853;28;20589;-77
2024/02/18 06:03:08;;;;;;;95.93;30.58;;;5.40;99.90;;;9.62;100.00;102172.84;5041103;28;20045;-78
2024/02/18 06:05:34;;;;;;;98.90;29.75;;;5.50;99.90;;;9.63;100.00;102179.97;5040382;28;20079;-77
2024/02/18 06:08:00;;;;;;;102.05;30.65;;;5.60;99.90;;;9.57;100.00;102175.22;5030615;28;20029;-77
2024/02/18 06:10:27;;;;;;;101.72;30.25;;;5.60;99.90;;;9.63;100.00;102169.09;5031951;28;20034;-76
2024/02/18 06:12:53;;;;;;;109.13;30.48;;;5.70;99.90;;;9.46;100.00;102168.25;5036291;28;20175;-77
2024/02/18 06:15:19;;;;;;;109.15;31.58;;;5.70;99.90;;;9.35;100.00;102166.75;5022722;28;20125;-76
2024/02/18 06:17:45;;;;;;;107.38;32.30;;;5.90;99.90;;;9.66;100.00;102165.16;5036556;28;20393;-77
2024/02/18 06:20:12;;;;;;;110.55;33.95;;;6.00;99.90;;;9.80;100.00;102163.56;5036593;28;20406;-76
2024/02/18 06:22:39;;;;;;;110.43;32.30;;;6.10;99.90;;;10.20;100.00;102159.00;5036577;28;20029;-77
2024/02/18 06:25:06;;;;;;;106.65;31.52;;;6.20;99.90;;;10.18;100.00;102162.94;5036235;28;20489;-78
2024/02/18 06:27:32;;;;;;;108.10;33.10;;;6.30;99.90;;;10.26;100.00;102164.78;5052548;28;20099;-77
2024/02/18 06:29:58;;;;;;;110.32;30.85;;;6.40;99.90;;;10.16;100.00;102159.53;5033419;28;20040;-78
2024/02/18 06:32:25;;;;;;;105.38;30.98;;;6.40;99.90;;;10.38;100.00;102157.91;5036092;28;20081;-77
2024/02/18 06:34:51;;;;;;;100.07;31.67;;;6.50;99.90;;;10.50;100.00;102159.22;5035651;28;20040;-77
2024/02/18 06:37:17;;;;;;;107.95;31.73;;;6.50;99.90;;;10.35;100.00;102158.28;5033243;28;20033;-77
2024/02/18 06:39:42;;;;;;;102.15;31.95;;;6.50;99.90;;;10.62;100.00;102145.19;5031754;28;20060;-77
2024/02/18 06:42:08;;;;;;;101.32;32.30;;;6.50;99.90;;;10.53;100.00;102148.97;5021787;28;20026;-76
2024/02/18 06:44:34;;;;;;;101.50;31.30;;;6.50;99.90;;;10.45;100.00;102145.28;5040427;28;20369;-77
2024/02/18 06:47:00;;;;;;;101.38;32.00;;;6.50;99.90;;;10.25;100.00;102141.25;5037780;28;20071;-76
2024/02/18 06:49:27;;;;;;;103.18;32.45;;;6.50;99.90;;;10.44;100.00;102142.72;5037350;28;20440;-75
2024/02/18 06:51:52;;;;;;;96.10;29.67;;;6.50;99.90;;;10.45;100.00;102130.78;5037595;28;20040;-75
2024/02/18 06:54:18;;;;;;;97.28;30.80;;;6.60;99.90;;;10.19;100.00;102132.78;5027427;28;20413;-76
2024/02/18 06:56:44;;;;;;;88.78;29.40;;;6.60;99.90;;;10.15;100.00;102117.78;5035572;28;20056;-75
2024/02/18 06:59:10;;;;;;;88.45;30.85;;;6.60;99.90;;;10.19;100.00;102115.53;5014394;28;20034;-76
2024/02/18 07:01:35;;;;;;;87.40;28.85;;;6.70;99.90;;;10.33;100.00;102111.22;5018896;28;20033;-76
2024/02/18 07:04:01;;;;;;;90.38;28.83;;;6.70;99.90;;;10.46;100.00;102105.19;5013792;28;20490;-76
2024/02/18 07:06:27;;;;;;;92.18;29.25;;;6.80;99.90;;;10.61;100.00;102106.13;5019820;28;20042;-76
2024/02/18 07:08:52;;;;;;;82.43;28.65;;;6.80;99.90;;;10.78;100.00;102108.75;5019997;28;20041;-75
2024/02/18 07:11:21;;;;;;;75.90;27.95;;;6.90;99.90;;;10.52;100.00;102104.50;5020805;28;20033;-75
2024/02/18 07:13:46;;;;;;;76.90;25.48;;;6.90;99.90;;;10.35;100.00;102087.34;5027004;28;20044;-75
2024/02/18 07:16:12;;;;;;;76.80;27.92;;;6.90;99.90;;;10.49;100.00;102102.97;5026882;28;20050;-77
2024/02/18 07:18:38;;;;;;;80.53;28.25;;;7.00;99.90;;;10.77;100.00;102098.84;5022740;28;20045;-77
2024/02/18 07:21:04;;;;;;;69.50;27.05;;;7.00;99.90;;;11.02;100.00;102104.13;5023026;28;20077;-76
2024/02/18 07:23:30;;;;;;;68.72;26.75;;;7.10;99.90;;;11.25;100.00;102101.31;5014610;28;20106;-79
2024/02/18 07:25:56;;;;;;;70.28;25.30;;;7.10;99.90;;;11.12;100.00;102092.91;5018213;28;20037;-77
2024/02/18 07:28:22;;;;;;;65.57;24.70;;;7.20;99.90;;;10.79;100.00;102099.53;5019102;28;20025;-79
2024/02/18 07:30:47;;;;;;;69.43;25.02;;;7.20;99.90;;;10.86;100.00;102099.63;5021387;28;20045;-78
2024/02/18 07:33:13;;;;;;;57.50;23.45;;;7.30;99.90;;;11.04;100.00;102097.41;5020899;28;20029;-79
2024/02/18 07:35:40;;;;;;;56.78;23.52;;;7.40;99.90;;;10.80;100.00;102087.56;5026913;28;20045;-79
2024/02/18 07:38:05;;;;;;;51.95;22.63;;;7.40;99.90;;;10.79;100.00;102088.59;5028906;28;20021;-80
2024/02/18 07:40:31;;;;;;;53.00;22.30;;;7.50;99.90;;;10.85;100.00;102079.66;5028257;28;20382;-81
2024/02/18 07:42:57;;;;;;;49.60;21.13;;;7.60;99.90;;;11.02;100.00;102074.06;5028854;28;20047;-81
2024/02/18 07:45:22;;;;;;;43.13;19.85;;;7.60;99.90;;;11.20;100.00;102071.81;5028749;28;20756;-81
2024/02/18 07:47:48;;;;;;;45.35;20.70;;;7.70;99.90;;;11.24;100.00;102075.03;5034526;28;20652;-80
2024/02/18 07:50:14;;;;;;;44.95;19.48;;;7.70;99.90;;;11.37;100.00;102072.50;5044586;28;20095;-80
2024/02/18 07:52:40;;;;;;;46.13;19.67;;;7.80;99.90;;;11.40;100.00;102065.81;5035100;28;20038;-79
2024/02/18 07:55:05;;;;;;;39.65;19.35;;;7.90;99.90;;;11.36;100.00;102065.34;5041635;28;20037;-83
2024/02/18 07:57:31;;;;;;;39.40;18.52;;;8.00;99.90;;;11.54;100.00;102064.13;5035901;28;20052;-82
2024/02/18 07:59:57;;;;;;;34.95;17.77;;;8.10;99.90;;;11.63;100.00;102065.72;5050862;28;20330;-80
2024/02/18 08:02:26;;;;;;;33.47;16.95;;;8.20;99.90;;;11.80;100.00;102065.53;5035250;28;20041;-80
2024/02/18 08:04:52;;;;;;;34.45;16.90;;;8.20;99.90;;;11.89;100.00;102053.44;5034320;28;20073;-80
2024/02/18 08:07:19;;;;;;;32.83;17.27;;;8.30;99.90;;;11.79;100.00;102051.00;5035924;28;20064;-81
2024/02/18 08:09:45;;;;;;;31.88;16.05;;;8.40;99.90;;;11.79;100.00;102047.44;5034781;28;20045;-80
2024/02/18 08:12:10;;;;;;;31.33;16.33;;;8.40;99.90;;;11.82;100.00;102041.56;5031859;28;20155;-79
2024/02/18 08:14:36;;;;;;;31.90;14.95;;;8.50;99.90;;;11.80;100.00;102049.13;5036078;28;20050;-81
2024/02/18 08:17:02;;;;;;;33.40;16.65;;;8.50;99.90;;;12.18;100.00;102038.03;5035004;28;20034;-82
2024/02/18 08:19:27;;;;;;;25.52;14.85;;;8.60;99.90;;;11.98;100.00;102042.41;5034211;28;20536;-81
2024/02/18 08:21:53;;;;;;;27.83;15.40;;;8.60;99.90;;;11.99;100.00;102028.53;5035784;28;20045;-81
2024/02/18 08:24:19;;;;;;;27.00;14.57;;;8.70;99.90;;;12.11;100.00;102028.06;5041086;28;20033;-81
2024/02/18 08:26:44;;;;;;;28.55;15.55;;;8.80;99.90;;;12.11;100.00;102019.88;5041778;28;20033;-82
2024/02/18 08:29:10;;;;;;;24.60;13.35;;;;;;;12.42;100.00;102025.00;5039049;28;20040;-82
2024/02/18 08:31:38;;;;;;;23.98;12.80;;;8.90;99.90;;;12.54;100.00;102024.50;5035635;28;20119;-81
2024/02/18 08:34:03;;;;;;;22.50;12.90;;;9.10;99.90;;;12.64;100.00;102022.25;5020863;28;20042;-82
2024/02/18 08:36:29;;;;;;;23.05;12.57;;;9.20;99.90;;;12.87;100.00;102005.63;5038546;28;20047;-79
2024/02/18 08:38:55;;;;;;;21.73;12.30;;;9.30;99.90;;;12.53;100.00;102015.44;5034731;28;20044;-82
2024/02/18 08:41:21;;;;;;;24.23;12.45;;;9.40;99.90;;;12.71;100.00;102006.72;5035973;28;20072;-83
2024/02/18 08:43:52;;;;;;;22.00;12.55;;;9.50;99.90;;;12.94;100.00;102006.50;5027836;28;20593;-82
2024/02/18 08:46:18;;;;;;;20.48;12.00;;;9.50;99.90;;;13.04;100.00;101989.72;5024312;28;20061;-80
2024/02/18 08:48:45;;;;;;;23.13;12.13;;;;;;;12.94;100.00;101997.44;5027650;28;20132;-80
2024/02/18 08:51:10;;;;;;;19.13;11.95;;;9.60;99.90;;;13.57;100.00;101985.63;5027075;28;20428;-80
2024/02/18 08:53:40;;;;;;;21.40;11.57;;;9.80;99.90;;;13.39;100.00;101991.59;5017837;28;20092;-80
2024/02/18 08:56:09;;;;;;;19.67;12.00;;;9.80;99.90;;;13.64;100.00;101978.25;5024514;28;20095;-77
2024/02/18 08:58:35;;;;;;;22.73;11.90;;;10.00;99.90;;;14.14;100.00;101976.25;5028438;28;20063;-78
2024/02/18 09:01:01;;;;;;;21.23;11.60;;;10.10;99.90;;;14.09;100.00;101975.00;5020322;28;20033;-78
2024/02/18 09:03:32;;;;;;;19.38;11.82;;;10.20;99.90;;;13.99;100.00;101981.94;5020924;28;20067;-78
2024/02/18 09:05:58;;;;;;;17.73;11.27;;;10.30;99.90;;;13.61;100.00;101973.19;5028387;28;20038;-78
2024/02/18 09:08:24;;;;;;;20.77;12.00;;;10.30;99.90;;;13.53;100.00;101976.09;5026585;28;20118;-80
2024/02/18 09:10:53;;;;;;;18.90;11.00;;;10.30;99.90;;;13.37;100.00;101971.75;5025726;28;20086;-78
2024/02/18 09:13:20;;;;;;;22.33;12.85;;;10.30;99.90;;;13.60;100.00;101971.50;5031083;28;20254;-80
2024/02/18 09:15:47;;;;;;;20.52;11.85;;;10.30;99.90;;;13.97;100.00;101971.19;5019832;28;20042;-79
2024/02/18 09:18:14;;;;;;;17.75;10.95;;;10.30;99.90;;;14.29;100.00;101974.19;5002477;28;20033;-79
2024/02/18 09:20:40;;;;;;;16.13;10.60;;;;;;;14.33;100.00;101966.41;5029250;28;20048;-79
2024/02/18 09:23:07;;;;;;;14.55;9.35;;;;;;;14.76;100.00;101968.72;4984993;28;20068;-78
2024/02/18 09:25:33;;;;;;;15.40;7.88;;;;;;;14.71;98.90;101952.03;5028879;28;20052;-79
2024/02/18 09:27:58;;;;;;;11.50;7.90;;;10.40;99.90;;;15.06;98.04;101956.44;5027470;28;20499;-79
2024/02/18 09:30:24;;;;;;;15.65;7.65;;;10.90;99.90;;;15.16;96.49;101950.50;5029456;28;20037;-78
2024/02/18 09:32:50;;;;;;;12.90;7.75;;;11.00;99.90;;;15.19;93.79;101939.06;5028410;28;20037;-79
2024/02/18 09:35:17;;;;;;;9.75;6.88;;;11.20;99.90;;;15.35;91.66;101944.06;5031182;28;20410;-78
2024/02/18 09:37:43;;;;;;;10.90;6.85;;;11.30;99.90;;;15.65;89.12;101943.53;5022168;28;20048;-77
2024/02/18 09:40:10;;;;;;;14.07;7.30;;;;;;;15.84;90.13;101949.13;5027861;28;20017;-78
2024/02/18 09:42:42;;;;;;;13.02;7.93;;;;;;;15.46;89.24;101939.78;5027943;28;20048;-77
2024/02/18 09:45:13;;;;;;;12.80;7.45;;;11.50;99.90;;;15.22;89.17;101935.88;5028636;28;20038;-77
2024/02/18 09:47:42;;;;;;;13.15;8.20;;;11.80;99.90;;;14.85;93.86;101949.25;5026251;28;20041;-77
2024/02/18 09:50:09;;;;;;;13.20;7.57;;;11.70;99.90;;;15.27;93.00;101933.31;5029643;28;20037;-77
2024/02/18 09:52:40;;;;;;;10.82;6.60;;;11.80;99.90;;;15.28;92.32;101936.91;5031929;28;20904;-77
2024/02/18 09:55:09;;;;;;;10.13;6.55;;;11.80;99.90;;;15.58;87.01;101909.69;5029842;28;20048;-77
2024/02/18 09:57:35;;;;;;;10.60;6.63;;;12.00;99.90;;;16.07;84.66;101923.84;5040712;28;20382;-77
2024/02/18 10:00:02;;;;;;;11.55;6.93;;;12.20;99.90;;;16.05;84.05;101920.47;5037538;28;20036;-77
2024/02/18 10:02:34;;;;;;;10.95;6.20;;;12.40;99.90;;;15.88;81.76;101911.88;5031576;28;20399;-76